White Hall, Texas
Current Conditions -  °F | °C
As of 6:15 PM on Friday 28 Nov 2014 (Local Time) from K11R Reporting Station
Clear Clear  
Wind Chill: 67°   Ceiling: Unl
Heat Index: 67°   Visibility: 10mi
Dew Point: 55°   Wind: 5mph
Humidity: 64%   Direction: 150°SSE
Pressure: 30.15"   Gusts: NA
Location:  30.367°N, 96.0045°W
Report Text: K11R 290015Z AUTO 15004KT 10SM CLR 19/13 A3015 RMK AO2 T01940125
Loading
Personal Weather Stations






























Interactive Weather Map New forecast layout! Learn more

10-Day Weather Forecast

Advertisements
Track Severe Weather on mobile